sensor_id;sensor_type;location;lat;lon;timestamp;P1;durP1;ratioP1;P2;durP2;ratioP2
54921;SDS011;40824;45.116;21.296;2023-04-06T00:02:16;23.65;;;16.90;;
54921;SDS011;40824;45.116;21.296;2023-04-06T00:04:42;23.73;;;16.95;;
54921;SDS011;40824;45.116;21.296;2023-04-06T00:07:08;23.77;;;16.67;;
54921;SDS011;40824;45.116;21.296;2023-04-06T00:09:34;19.33;;;15.27;;
54921;SDS011;40824;45.116;21.296;2023-04-06T00:12:00;22.90;;;15.77;;
54921;SDS011;40824;45.116;21.296;2023-04-06T00:14:27;18.83;;;15.43;;
54921;SDS011;40824;45.116;21.296;2023-04-06T00:16:53;19.70;;;15.45;;
54921;SDS011;40824;45.116;21.296;2023-04-06T00:19:19;20.00;;;15.18;;
54921;SDS011;40824;45.116;21.296;2023-04-06T00:21:45;19.67;;;14.27;;
54921;SDS011;40824;45.116;21.296;2023-04-06T00:24:11;20.67;;;15.70;;
54921;SDS011;40824;45.116;21.296;2023-04-06T00:26:37;18.77;;;14.63;;
54921;SDS011;40824;45.116;21.296;2023-04-06T00:29:06;18.27;;;14.60;;
54921;SDS011;40824;45.116;21.296;2023-04-06T00:31:32;22.08;;;15.13;;
54921;SDS011;40824;45.116;21.296;2023-04-06T00:33:58;20.95;;;16.23;;
54921;SDS011;40824;45.116;21.296;2023-04-06T00:36:24;23.50;;;16.92;;
54921;SDS011;40824;45.116;21.296;2023-04-06T00:38:51;22.38;;;16.90;;
54921;SDS011;40824;45.116;21.296;2023-04-06T00:41:17;22.45;;;15.63;;
54921;SDS011;40824;45.116;21.296;2023-04-06T00:43:43;26.27;;;16.95;;
54921;SDS011;40824;45.116;21.296;2023-04-06T00:46:10;22.70;;;16.45;;
54921;SDS011;40824;45.116;21.296;2023-04-06T00:48:36;19.55;;;15.27;;
54921;SDS011;40824;45.116;21.296;2023-04-06T00:51:02;22.80;;;16.45;;
54921;SDS011;40824;45.116;21.296;2023-04-06T00:53:28;23.77;;;15.60;;
54921;SDS011;40824;45.116;21.296;2023-04-06T00:55:54;23.27;;;17.90;;
54921;SDS011;40824;45.116;21.296;2023-04-06T00:58:20;21.25;;;16.05;;
54921;SDS011;40824;45.116;21.296;2023-04-06T01:00:47;23.08;;;16.70;;
54921;SDS011;40824;45.116;21.296;2023-04-06T01:03:13;22.48;;;15.98;;
54921;SDS011;40824;45.116;21.296;2023-04-06T01:05:39;20.67;;;16.45;;
54921;SDS011;40824;45.116;21.296;2023-04-06T01:08:08;21.92;;;16.00;;
54921;SDS011;40824;45.116;21.296;2023-04-06T01:10:34;22.30;;;16.83;;
54921;SDS011;40824;45.116;21.296;2023-04-06T01:13:00;21.75;;;15.73;;
54921;SDS011;40824;45.116;21.296;2023-04-06T01:15:27;17.80;;;15.73;;
54921;SDS011;40824;45.116;21.296;2023-04-06T01:17:54;21.42;;;15.10;;
54921;SDS011;40824;45.116;21.296;2023-04-06T01:20:20;21.75;;;16.15;;
54921;SDS011;40824;45.116;21.296;2023-04-06T01:22:46;21.95;;;16.88;;
54921;SDS011;40824;45.116;21.296;2023-04-06T01:25:12;23.80;;;15.73;;
54921;SDS011;40824;45.116;21.296;2023-04-06T01:27:39;20.40;;;15.85;;
54921;SDS011;40824;45.116;21.296;2023-04-06T01:30:05;22.38;;;15.98;;
54921;SDS011;40824;45.116;21.296;2023-04-06T01:32:32;22.27;;;16.52;;
54921;SDS011;40824;45.116;21.296;2023-04-06T01:34:58;22.42;;;16.77;;
54921;SDS011;40824;45.116;21.296;2023-04-06T01:37:24;20.52;;;16.30;;
54921;SDS011;40824;45.116;21.296;2023-04-06T01:39:51;21.90;;;16.38;;
54921;SDS011;40824;45.116;21.296;2023-04-06T01:42:17;24.00;;;17.20;;
54921;SDS011;40824;45.116;21.296;2023-04-06T01:44:43;23.63;;;17.23;;
54921;SDS011;40824;45.116;21.296;2023-04-06T01:47:10;24.50;;;17.77;;
54921;SDS011;40824;45.116;21.296;2023-04-06T01:49:36;20.60;;;16.63;;
54921;SDS011;40824;45.116;21.296;2023-04-06T01:52:02;20.90;;;16.02;;
54921;SDS011;40824;45.116;21.296;2023-04-06T01:54:28;23.20;;;17.45;;
54921;SDS011;40824;45.116;21.296;2023-04-06T01:56:55;25.98;;;17.17;;
54921;SDS011;40824;45.116;21.296;2023-04-06T01:59:21;21.80;;;16.60;;
54921;SDS011;40824;45.116;21.296;2023-04-06T02:01:47;21.70;;;16.60;;
54921;SDS011;40824;45.116;21.296;2023-04-06T02:04:13;23.40;;;16.90;;
54921;SDS011;40824;45.116;21.296;2023-04-06T02:06:39;28.13;;;18.42;;
54921;SDS011;40824;45.116;21.296;2023-04-06T02:09:06;21.67;;;16.80;;
54921;SDS011;40824;45.116;21.296;2023-04-06T02:11:32;23.40;;;18.35;;
54921;SDS011;40824;45.116;21.296;2023-04-06T02:13:58;23.58;;;17.95;;
54921;SDS011;40824;45.116;21.296;2023-04-06T02:16:25;27.77;;;19.45;;
54921;SDS011;40824;45.116;21.296;2023-04-06T02:18:52;22.52;;;18.02;;
54921;SDS011;40824;45.116;21.296;2023-04-06T02:21:18;23.75;;;17.55;;
54921;SDS011;40824;45.116;21.296;2023-04-06T02:23:45;25.38;;;18.42;;
54921;SDS011;40824;45.116;21.296;2023-04-06T02:26:12;25.20;;;18.55;;
54921;SDS011;40824;45.116;21.296;2023-04-06T02:28:38;27.90;;;19.08;;
54921;SDS011;40824;45.116;21.296;2023-04-06T02:31:04;24.13;;;18.55;;
54921;SDS011;40824;45.116;21.296;2023-04-06T02:33:31;27.23;;;19.50;;
54921;SDS011;40824;45.116;21.296;2023-04-06T02:35:57;26.50;;;18.50;;
54921;SDS011;40824;45.116;21.296;2023-04-06T02:38:23;26.90;;;19.70;;
54921;SDS011;40824;45.116;21.296;2023-04-06T02:40:49;25.73;;;19.25;;
54921;SDS011;40824;45.116;21.296;2023-04-06T02:43:15;25.23;;;20.08;;
54921;SDS011;40824;45.116;21.296;2023-04-06T02:45:42;24.63;;;19.00;;
54921;SDS011;40824;45.116;21.296;2023-04-06T02:48:08;24.35;;;19.17;;
54921;SDS011;40824;45.116;21.296;2023-04-06T02:50:34;29.05;;;20.55;;
54921;SDS011;40824;45.116;21.296;2023-04-06T02:53:01;28.77;;;19.50;;
54921;SDS011;40824;45.116;21.296;2023-04-06T02:55:27;29.33;;;20.48;;
54921;SDS011;40824;45.116;21.296;2023-04-06T02:57:53;26.67;;;20.17;;
54921;SDS011;40824;45.116;21.296;2023-04-06T03:00:19;25.83;;;20.20;;
54921;SDS011;40824;45.116;21.296;2023-04-06T03:02:46;26.98;;;19.90;;
54921;SDS011;40824;45.116;21.296;2023-04-06T03:05:12;27.35;;;20.65;;
54921;SDS011;40824;45.116;21.296;2023-04-06T03:07:38;25.58;;;19.75;;
54921;SDS011;40824;45.116;21.296;2023-04-06T03:10:04;31.02;;;20.02;;
54921;SDS011;40824;45.116;21.296;2023-04-06T03:12:31;28.65;;;21.08;;
54921;SDS011;40824;45.116;21.296;2023-04-06T03:14:57;28.45;;;20.92;;
54921;SDS011;40824;45.116;21.296;2023-04-06T03:17:23;25.25;;;19.73;;
54921;SDS011;40824;45.116;21.296;2023-04-06T03:19:49;28.05;;;20.00;;
54921;SDS011;40824;45.116;21.296;2023-04-06T03:22:16;27.63;;;19.67;;
54921;SDS011;40824;45.116;21.296;2023-04-06T03:24:42;29.55;;;20.08;;
54921;SDS011;40824;45.116;21.296;2023-04-06T03:27:08;25.67;;;20.08;;
54921;SDS011;40824;45.116;21.296;2023-04-06T03:29:34;29.25;;;20.73;;
54921;SDS011;40824;45.116;21.296;2023-04-06T03:32:00;28.63;;;20.63;;
54921;SDS011;40824;45.116;21.296;2023-04-06T03:34:26;29.40;;;21.05;;
54921;SDS011;40824;45.116;21.296;2023-04-06T03:36:52;28.45;;;20.88;;
54921;SDS011;40824;45.116;21.296;2023-04-06T03:39:19;28.05;;;20.98;;
54921;SDS011;40824;45.116;21.296;2023-04-06T03:41:45;28.67;;;21.20;;
54921;SDS011;40824;45.116;21.296;2023-04-06T03:44:11;30.92;;;21.10;;
54921;SDS011;40824;45.116;21.296;2023-04-06T03:46:37;30.95;;;21.02;;
54921;SDS011;40824;45.116;21.296;2023-04-06T03:49:04;29.80;;;21.60;;
54921;SDS011;40824;45.116;21.296;2023-04-06T03:51:30;33.10;;;21.50;;
54921;SDS011;40824;45.116;21.296;2023-04-06T03:53:56;34.45;;;22.15;;
54921;SDS011;40824;45.116;21.296;2023-04-06T03:56:22;32.75;;;22.98;;
54921;SDS011;40824;45.116;21.296;2023-04-06T03:58:48;30.27;;;21.20;;
54921;SDS011;40824;45.116;21.296;2023-04-06T04:01:16;32.88;;;22.42;;
54921;SDS011;40824;45.116;21.296;2023-04-06T04:03:43;31.02;;;20.80;;
54921;SDS011;40824;45.116;21.296;2023-04-06T04:06:09;27.70;;;19.80;;
54921;SDS011;40824;45.116;21.296;2023-04-06T04:08:35;27.55;;;19.75;;
54921;SDS011;40824;45.116;21.296;2023-04-06T04:11:01;29.27;;;19.70;;
54921;SDS011;40824;45.116;21.296;2023-04-06T04:13:27;25.75;;;19.45;;
54921;SDS011;40824;45.116;21.296;2023-04-06T04:15:53;26.60;;;19.80;;
54921;SDS011;40824;45.116;21.296;2023-04-06T04:18:22;25.95;;;21.05;;
54921;SDS011;40824;45.116;21.296;2023-04-06T04:20:48;25.85;;;19.70;;
54921;SDS011;40824;45.116;21.296;2023-04-06T04:23:14;34.22;;;20.30;;
54921;SDS011;40824;45.116;21.296;2023-04-06T04:25:41;32.22;;;20.65;;
54921;SDS011;40824;45.116;21.296;2023-04-06T04:28:07;31.77;;;21.08;;
54921;SDS011;40824;45.116;21.296;2023-04-06T04:30:33;28.30;;;21.02;;
54921;SDS011;40824;45.116;21.296;2023-04-06T04:32:59;27.00;;;19.83;;
54921;SDS011;40824;45.116;21.296;2023-04-06T04:35:26;29.58;;;19.73;;
54921;SDS011;40824;45.116;21.296;2023-04-06T04:37:52;27.88;;;19.80;;
54921;SDS011;40824;45.116;21.296;2023-04-06T04:40:18;30.30;;;18.95;;
54921;SDS011;40824;45.116;21.296;2023-04-06T04:42:44;36.47;;;21.85;;
54921;SDS011;40824;45.116;21.296;2023-04-06T04:45:11;26.75;;;18.23;;
54921;SDS011;40824;45.116;21.296;2023-04-06T04:47:37;27.33;;;17.70;;
54921;SDS011;40824;45.116;21.296;2023-04-06T04:50:04;23.52;;;17.85;;
54921;SDS011;40824;45.116;21.296;2023-04-06T04:52:30;25.67;;;18.63;;
54921;SDS011;40824;45.116;21.296;2023-04-06T04:54:59;31.85;;;20.58;;
54921;SDS011;40824;45.116;21.296;2023-04-06T04:57:25;30.35;;;19.95;;
54921;SDS011;40824;45.116;21.296;2023-04-06T04:59:51;27.48;;;18.38;;
54921;SDS011;40824;45.116;21.296;2023-04-06T05:02:17;24.58;;;18.75;;
54921;SDS011;40824;45.116;21.296;2023-04-06T05:04:43;26.52;;;18.27;;
54921;SDS011;40824;45.116;21.296;2023-04-06T05:07:10;28.55;;;18.27;;
54921;SDS011;40824;45.116;21.296;2023-04-06T05:09:36;25.77;;;17.63;;
54921;SDS011;40824;45.116;21.296;2023-04-06T05:12:02;25.08;;;18.80;;
54921;SDS011;40824;45.116;21.296;2023-04-06T05:14:28;31.25;;;17.95;;
54921;SDS011;40824;45.116;21.296;2023-04-06T05:16:55;26.25;;;16.92;;
54921;SDS011;40824;45.116;21.296;2023-04-06T05:19:21;25.85;;;17.65;;
54921;SDS011;40824;45.116;21.296;2023-04-06T05:21:47;23.67;;;17.83;;
54921;SDS011;40824;45.116;21.296;2023-04-06T05:24:13;25.88;;;16.35;;
54921;SDS011;40824;45.116;21.296;2023-04-06T05:26:40;27.67;;;17.77;;
54921;SDS011;40824;45.116;21.296;2023-04-06T05:29:06;28.10;;;16.38;;
54921;SDS011;40824;45.116;21.296;2023-04-06T05:31:32;22.58;;;17.65;;
54921;SDS011;40824;45.116;21.296;2023-04-06T05:33:59;20.15;;;14.82;;
54921;SDS011;40824;45.116;21.296;2023-04-06T05:36:25;25.17;;;15.55;;
54921;SDS011;40824;45.116;21.296;2023-04-06T05:38:51;26.00;;;16.45;;
54921;SDS011;40824;45.116;21.296;2023-04-06T05:41:18;20.48;;;15.18;;
54921;SDS011;40824;45.116;21.296;2023-04-06T05:43:45;21.42;;;14.35;;
54921;SDS011;40824;45.116;21.296;2023-04-06T05:46:11;24.80;;;16.40;;
54921;SDS011;40824;45.116;21.296;2023-04-06T05:48:37;21.52;;;14.48;;
54921;SDS011;40824;45.116;21.296;2023-04-06T05:51:03;18.45;;;13.00;;
54921;SDS011;40824;45.116;21.296;2023-04-06T05:53:31;23.98;;;15.45;;
54921;SDS011;40824;45.116;21.296;2023-04-06T05:56:00;19.40;;;13.65;;
54921;SDS011;40824;45.116;21.296;2023-04-06T05:58:26;17.95;;;12.77;;
54921;SDS011;40824;45.116;21.296;2023-04-06T06:00:56;19.13;;;13.05;;
54921;SDS011;40824;45.116;21.296;2023-04-06T06:03:23;16.58;;;12.60;;
54921;SDS011;40824;45.116;21.296;2023-04-06T06:05:49;16.15;;;11.55;;
54921;SDS011;40824;45.116;21.296;2023-04-06T06:08:15;15.45;;;10.20;;
54921;SDS011;40824;45.116;21.296;2023-04-06T06:10:41;15.18;;;10.82;;
54921;SDS011;40824;45.116;21.296;2023-04-06T06:13:08;13.05;;;9.65;;
54921;SDS011;40824;45.116;21.296;2023-04-06T06:15:34;16.33;;;10.38;;
54921;SDS011;40824;45.116;21.296;2023-04-06T06:18:00;15.70;;;10.43;;
54921;SDS011;40824;45.116;21.296;2023-04-06T06:20:26;50.10;;;12.55;;
54921;SDS011;40824;45.116;21.296;2023-04-06T06:22:52;14.70;;;10.10;;
54921;SDS011;40824;45.116;21.296;2023-04-06T06:25:21;17.60;;;11.10;;
54921;SDS011;40824;45.116;21.296;2023-04-06T06:27:47;15.73;;;10.90;;
54921;SDS011;40824;45.116;21.296;2023-04-06T06:30:13;17.17;;;10.73;;
54921;SDS011;40824;45.116;21.296;2023-04-06T06:32:40;13.02;;;9.50;;
54921;SDS011;40824;45.116;21.296;2023-04-06T06:35:06;14.95;;;10.48;;
54921;SDS011;40824;45.116;21.296;2023-04-06T06:37:32;13.23;;;10.07;;
54921;SDS011;40824;45.116;21.296;2023-04-06T06:39:58;15.85;;;10.52;;
54921;SDS011;40824;45.116;21.296;2023-04-06T06:42:24;14.45;;;9.77;;
54921;SDS011;40824;45.116;21.296;2023-04-06T06:44:51;14.05;;;9.52;;
54921;SDS011;40824;45.116;21.296;2023-04-06T06:47:17;14.20;;;10.35;;
54921;SDS011;40824;45.116;21.296;2023-04-06T06:49:43;14.10;;;10.10;;
54921;SDS011;40824;45.116;21.296;2023-04-06T06:52:09;14.43;;;9.80;;
54921;SDS011;40824;45.116;21.296;2023-04-06T06:54:35;14.68;;;10.00;;
54921;SDS011;40824;45.116;21.296;2023-04-06T06:57:04;17.05;;;10.30;;
54921;SDS011;40824;45.116;21.296;2023-04-06T06:59:30;15.80;;;11.13;;
54921;SDS011;40824;45.116;21.296;2023-04-06T07:01:56;14.43;;;9.80;;
54921;SDS011;40824;45.116;21.296;2023-04-06T07:04:23;13.65;;;9.50;;
54921;SDS011;40824;45.116;21.296;2023-04-06T07:06:49;18.25;;;11.38;;
54921;SDS011;40824;45.116;21.296;2023-04-06T07:09:15;15.30;;;9.65;;
54921;SDS011;40824;45.116;21.296;2023-04-06T07:11:41;16.45;;;10.35;;
54921;SDS011;40824;45.116;21.296;2023-04-06T07:14:07;15.75;;;10.45;;
54921;SDS011;40824;45.116;21.296;2023-04-06T07:16:34;15.57;;;9.82;;
54921;SDS011;40824;45.116;21.296;2023-04-06T07:19:00;17.30;;;10.10;;
54921;SDS011;40824;45.116;21.296;2023-04-06T07:21:26;12.98;;;9.85;;
54921;SDS011;40824;45.116;21.296;2023-04-06T07:23:52;13.18;;;9.20;;
54921;SDS011;40824;45.116;21.296;2023-04-06T07:26:18;15.07;;;9.30;;
54921;SDS011;40824;45.116;21.296;2023-04-06T07:28:48;14.25;;;9.82;;
54921;SDS011;40824;45.116;21.296;2023-04-06T07:31:14;12.70;;;8.98;;
54921;SDS011;40824;45.116;21.296;2023-04-06T07:33:40;12.15;;;8.48;;
54921;SDS011;40824;45.116;21.296;2023-04-06T07:36:06;15.32;;;10.40;;
54921;SDS011;40824;45.116;21.296;2023-04-06T07:38:32;23.50;;;19.00;;
54921;SDS011;40824;45.116;21.296;2023-04-06T07:40:58;14.30;;;10.82;;
54921;SDS011;40824;45.116;21.296;2023-04-06T07:43:27;10.63;;;8.75;;
54921;SDS011;40824;45.116;21.296;2023-04-06T07:45:54;13.18;;;9.55;;
54921;SDS011;40824;45.116;21.296;2023-04-06T07:48:22;10.20;;;8.68;;
54921;SDS011;40824;45.116;21.296;2023-04-06T07:50:48;11.35;;;8.98;;
54921;SDS011;40824;45.116;21.296;2023-04-06T07:53:14;11.60;;;8.60;;
54921;SDS011;40824;45.116;21.296;2023-04-06T07:55:40;11.10;;;8.20;;
54921;SDS011;40824;45.116;21.296;2023-04-06T07:58:06;14.15;;;9.93;;
54921;SDS011;40824;45.116;21.296;2023-04-06T08:00:33;8.05;;;6.85;;
54921;SDS011;40824;45.116;21.296;2023-04-06T08:02:59;9.48;;;7.00;;
54921;SDS011;40824;45.116;21.296;2023-04-06T08:05:25;9.07;;;7.30;;
54921;SDS011;40824;45.116;21.296;2023-04-06T08:07:51;7.88;;;7.07;;
54921;SDS011;40824;45.116;21.296;2023-04-06T08:10:17;8.60;;;6.63;;
54921;SDS011;40824;45.116;21.296;2023-04-06T08:12:43;8.48;;;6.22;;
54921;SDS011;40824;45.116;21.296;2023-04-06T08:15:10;8.60;;;7.40;;
54921;SDS011;40824;45.116;21.296;2023-04-06T08:17:36;11.80;;;6.93;;
54921;SDS011;40824;45.116;21.296;2023-04-06T08:20:02;7.90;;;7.07;;
54921;SDS011;40824;45.116;21.296;2023-04-06T08:22:28;10.18;;;7.03;;
54921;SDS011;40824;45.116;21.296;2023-04-06T08:24:54;10.98;;;7.45;;
54921;SDS011;40824;45.116;21.296;2023-04-06T08:27:20;12.15;;;7.47;;
54921;SDS011;40824;45.116;21.296;2023-04-06T08:29:49;8.57;;;6.38;;
54921;SDS011;40824;45.116;21.296;2023-04-06T08:32:16;10.43;;;6.85;;
54921;SDS011;40824;45.116;21.296;2023-04-06T08:34:42;8.20;;;7.35;;
54921;SDS011;40824;45.116;21.296;2023-04-06T08:37:08;8.02;;;6.35;;
54921;SDS011;40824;45.116;21.296;2023-04-06T08:39:34;7.38;;;5.85;;
54921;SDS011;40824;45.116;21.296;2023-04-06T08:42:01;7.40;;;6.40;;
54921;SDS011;40824;45.116;21.296;2023-04-06T08:44:28;8.38;;;6.80;;
54921;SDS011;40824;45.116;21.296;2023-04-06T08:46:55;10.80;;;7.05;;
54921;SDS011;40824;45.116;21.296;2023-04-06T08:49:21;9.90;;;7.88;;
54921;SDS011;40824;45.116;21.296;2023-04-06T08:51:48;8.98;;;6.80;;
54921;SDS011;40824;45.116;21.296;2023-04-06T08:54:15;9.05;;;6.47;;
54921;SDS011;40824;45.116;21.296;2023-04-06T08:56:41;8.48;;;6.78;;
54921;SDS011;40824;45.116;21.296;2023-04-06T08:59:08;9.35;;;7.05;;
54921;SDS011;40824;45.116;21.296;2023-04-06T09:01:40;12.23;;;7.60;;
54921;SDS011;40824;45.116;21.296;2023-04-06T09:04:06;9.18;;;6.35;;
54921;SDS011;40824;45.116;21.296;2023-04-06T09:06:36;9.38;;;6.47;;
54921;SDS011;40824;45.116;21.296;2023-04-06T09:09:02;8.00;;;6.25;;
54921;SDS011;40824;45.116;21.296;2023-04-06T09:11:28;7.50;;;6.70;;
54921;SDS011;40824;45.116;21.296;2023-04-06T09:13:55;9.10;;;7.18;;
54921;SDS011;40824;45.116;21.296;2023-04-06T09:16:22;12.43;;;7.60;;
54921;SDS011;40824;45.116;21.296;2023-04-06T09:18:48;7.93;;;6.57;;
54921;SDS011;40824;45.116;21.296;2023-04-06T09:21:16;8.02;;;6.97;;
54921;SDS011;40824;45.116;21.296;2023-04-06T09:23:43;8.05;;;7.10;;
54921;SDS011;40824;45.116;21.296;2023-04-06T09:26:13;9.32;;;6.57;;
54921;SDS011;40824;45.116;21.296;2023-04-06T09:31:08;7.32;;;6.10;;
54921;SDS011;40824;45.116;21.296;2023-04-06T09:33:37;12.07;;;6.72;;
54921;SDS011;40824;45.116;21.296;2023-04-06T09:36:04;8.73;;;6.43;;
54921;SDS011;40824;45.116;21.296;2023-04-06T09:38:30;10.20;;;7.03;;
54921;SDS011;40824;45.116;21.296;2023-04-06T09:40:56;7.78;;;6.68;;
54921;SDS011;40824;45.116;21.296;2023-04-06T09:43:28;8.77;;;7.18;;
54921;SDS011;40824;45.116;21.296;2023-04-06T09:45:55;10.00;;;7.57;;
54921;SDS011;40824;45.116;21.296;2023-04-06T09:48:22;9.63;;;7.28;;
54921;SDS011;40824;45.116;21.296;2023-04-06T09:50:53;10.70;;;6.28;;
54921;SDS011;40824;45.116;21.296;2023-04-06T09:53:23;11.25;;;7.05;;
54921;SDS011;40824;45.116;21.296;2023-04-06T09:55:53;10.32;;;6.57;;
54921;SDS011;40824;45.116;21.296;2023-04-06T09:58:22;7.20;;;6.30;;
54921;SDS011;40824;45.116;21.296;2023-04-06T10:01:10;8.15;;;5.90;;
54921;SDS011;40824;45.116;21.296;2023-04-06T10:06:09;7.45;;;5.88;;
54921;SDS011;40824;45.116;21.296;2023-04-06T10:08:36;8.18;;;6.15;;
54921;SDS011;40824;45.116;21.296;2023-04-06T10:11:05;10.15;;;5.78;;
54921;SDS011;40824;45.116;21.296;2023-04-06T10:13:32;8.75;;;6.03;;
54921;SDS011;40824;45.116;21.296;2023-04-06T10:15:59;9.13;;;6.25;;
54921;SDS011;40824;45.116;21.296;2023-04-06T10:18:29;7.22;;;6.15;;
54921;SDS011;40824;45.116;21.296;2023-04-06T10:21:04;7.53;;;6.32;;
54921;SDS011;40824;45.116;21.296;2023-04-06T10:25:59;10.43;;;9.25;;
54921;SDS011;40824;45.116;21.296;2023-04-06T10:28:25;7.88;;;6.18;;
54921;SDS011;40824;45.116;21.296;2023-04-06T10:31:01;10.35;;;7.22;;
54921;SDS011;40824;45.116;21.296;2023-04-06T10:33:28;7.82;;;6.72;;
54921;SDS011;40824;45.116;21.296;2023-04-06T10:35:54;8.07;;;6.22;;
54921;SDS011;40824;45.116;21.296;2023-04-06T10:38:20;10.77;;;7.47;;
54921;SDS011;40824;45.116;21.296;2023-04-06T10:40:49;11.95;;;6.90;;
54921;SDS011;40824;45.116;21.296;2023-04-06T10:43:18;10.60;;;7.15;;
54921;SDS011;40824;45.116;21.296;2023-04-06T10:45:45;10.15;;;6.85;;
54921;SDS011;40824;45.116;21.296;2023-04-06T10:48:20;9.23;;;7.47;;
54921;SDS011;40824;45.116;21.296;2023-04-06T10:50:50;11.55;;;6.82;;
54921;SDS011;40824;45.116;21.296;2023-04-06T10:53:26;10.45;;;7.35;;
54921;SDS011;40824;45.116;21.296;2023-04-06T10:55:54;8.23;;;6.28;;
54921;SDS011;40824;45.116;21.296;2023-04-06T10:58:24;10.82;;;6.30;;
54921;SDS011;40824;45.116;21.296;2023-04-06T11:00:50;8.23;;;6.60;;
54921;SDS011;40824;45.116;21.296;2023-04-06T11:03:16;9.38;;;7.13;;
54921;SDS011;40824;45.116;21.296;2023-04-06T11:05:49;8.48;;;6.78;;
54921;SDS011;40824;45.116;21.296;2023-04-06T11:08:25;10.48;;;7.22;;
54921;SDS011;40824;45.116;21.296;2023-04-06T11:10:52;10.35;;;6.30;;
54921;SDS011;40824;45.116;21.296;2023-04-06T11:13:18;11.35;;;7.75;;
54921;SDS011;40824;45.116;21.296;2023-04-06T11:15:49;9.35;;;7.43;;
54921;SDS011;40824;45.116;21.296;2023-04-06T11:18:16;9.45;;;7.90;;
54921;SDS011;40824;45.116;21.296;2023-04-06T11:20:47;11.35;;;7.85;;
54921;SDS011;40824;45.116;21.296;2023-04-06T11:23:13;9.55;;;7.32;;
54921;SDS011;40824;45.116;21.296;2023-04-06T11:25:51;13.02;;;9.77;;
54921;SDS011;40824;45.116;21.296;2023-04-06T11:28:18;16.27;;;13.40;;
54921;SDS011;40824;45.116;21.296;2023-04-06T11:30:44;15.52;;;11.95;;
54921;SDS011;40824;45.116;21.296;2023-04-06T11:33:10;9.48;;;7.57;;
54921;SDS011;40824;45.116;21.296;2023-04-06T11:35:37;14.38;;;7.35;;
54921;SDS011;40824;45.116;21.296;2023-04-06T11:38:03;12.65;;;7.82;;
54921;SDS011;40824;45.116;21.296;2023-04-06T11:40:29;15.65;;;12.32;;
54921;SDS011;40824;45.116;21.296;2023-04-06T11:42:58;16.90;;;14.68;;
54921;SDS011;40824;45.116;21.296;2023-04-06T11:45:24;27.52;;;21.00;;
54921;SDS011;40824;45.116;21.296;2023-04-06T11:47:56;19.42;;;14.63;;
54921;SDS011;40824;45.116;21.296;2023-04-06T11:50:31;18.05;;;11.35;;
54921;SDS011;40824;45.116;21.296;2023-04-06T11:52:59;13.77;;;10.13;;
54921;SDS011;40824;45.116;21.296;2023-04-06T11:55:26;12.52;;;9.88;;
54921;SDS011;40824;45.116;21.296;2023-04-06T11:57:52;22.17;;;15.20;;
54921;SDS011;40824;45.116;21.296;2023-04-06T12:00:18;22.08;;;16.13;;
54921;SDS011;40824;45.116;21.296;2023-04-06T12:02:48;11.68;;;9.90;;
54921;SDS011;40824;45.116;21.296;2023-04-06T12:05:14;22.85;;;17.10;;
54921;SDS011;40824;45.116;21.296;2023-04-06T12:07:40;22.75;;;16.55;;
54921;SDS011;40824;45.116;21.296;2023-04-06T12:10:06;24.02;;;18.40;;
54921;SDS011;40824;45.116;21.296;2023-04-06T12:12:33;13.18;;;10.63;;
54921;SDS011;40824;45.116;21.296;2023-04-06T12:15:00;14.10;;;9.25;;
54921;SDS011;40824;45.116;21.296;2023-04-06T12:17:27;11.25;;;8.50;;
54921;SDS011;40824;45.116;21.296;2023-04-06T12:19:53;13.00;;;8.90;;
54921;SDS011;40824;45.116;21.296;2023-04-06T12:22:19;14.65;;;8.60;;
54921;SDS011;40824;45.116;21.296;2023-04-06T12:24:45;12.18;;;9.35;;
54921;SDS011;40824;45.116;21.296;2023-04-06T12:27:11;12.68;;;8.75;;
54921;SDS011;40824;45.116;21.296;2023-04-06T12:29:38;12.80;;;8.38;;
54921;SDS011;40824;45.116;21.296;2023-04-06T12:32:04;14.00;;;9.32;;
54921;SDS011;40824;45.116;21.296;2023-04-06T12:34:31;14.20;;;8.80;;
54921;SDS011;40824;45.116;21.296;2023-04-06T12:36:57;14.93;;;9.23;;
54921;SDS011;40824;45.116;21.296;2023-04-06T12:39:23;12.05;;;9.15;;
54921;SDS011;40824;45.116;21.296;2023-04-06T12:41:50;14.52;;;9.10;;
54921;SDS011;40824;45.116;21.296;2023-04-06T12:44:17;13.30;;;9.75;;
54921;SDS011;40824;45.116;21.296;2023-04-06T12:46:43;13.20;;;9.75;;
54921;SDS011;40824;45.116;21.296;2023-04-06T12:49:10;12.43;;;9.63;;
54921;SDS011;40824;45.116;21.296;2023-04-06T12:51:36;14.90;;;11.55;;
54921;SDS011;40824;45.116;21.296;2023-04-06T12:54:02;14.38;;;11.88;;
54921;SDS011;40824;45.116;21.296;2023-04-06T12:56:28;12.18;;;10.82;;
54921;SDS011;40824;45.116;21.296;2023-04-06T12:58:56;14.10;;;11.82;;
54921;SDS011;40824;45.116;21.296;2023-04-06T13:01:22;16.45;;;10.80;;
54921;SDS011;40824;45.116;21.296;2023-04-06T13:03:48;12.77;;;10.10;;
54921;SDS011;40824;45.116;21.296;2023-04-06T13:06:16;13.43;;;10.02;;
54921;SDS011;40824;45.116;21.296;2023-04-06T13:08:42;13.82;;;11.00;;
54921;SDS011;40824;45.116;21.296;2023-04-06T13:11:12;17.70;;;9.68;;
54921;SDS011;40824;45.116;21.296;2023-04-06T13:13:39;12.52;;;9.68;;
54921;SDS011;40824;45.116;21.296;2023-04-06T13:16:09;18.35;;;11.90;;
54921;SDS011;40824;45.116;21.296;2023-04-06T13:18:35;19.85;;;10.70;;
54921;SDS011;40824;45.116;21.296;2023-04-06T13:21:03;18.60;;;11.80;;
54921;SDS011;40824;45.116;21.296;2023-04-06T13:23:30;16.23;;;11.55;;
54921;SDS011;40824;45.116;21.296;2023-04-06T13:26:00;14.90;;;10.80;;
54921;SDS011;40824;45.116;21.296;2023-04-06T13:28:26;17.15;;;11.77;;
54921;SDS011;40824;45.116;21.296;2023-04-06T13:30:53;13.43;;;10.25;;
54921;SDS011;40824;45.116;21.296;2023-04-06T13:33:19;14.57;;;10.70;;
54921;SDS011;40824;45.116;21.296;2023-04-06T13:35:46;15.38;;;11.73;;
54921;SDS011;40824;45.116;21.296;2023-04-06T13:38:16;12.23;;;9.93;;
54921;SDS011;40824;45.116;21.296;2023-04-06T13:40:42;34.45;;;25.10;;
54921;SDS011;40824;45.116;21.296;2023-04-06T13:43:09;40.53;;;29.75;;
54921;SDS011;40824;45.116;21.296;2023-04-06T13:45:36;20.45;;;15.50;;
54921;SDS011;40824;45.116;21.296;2023-04-06T13:48:02;34.47;;;23.77;;
54921;SDS011;40824;45.116;21.296;2023-04-06T13:50:28;46.47;;;36.15;;
54921;SDS011;40824;45.116;21.296;2023-04-06T13:52:55;30.63;;;25.77;;
54921;SDS011;40824;45.116;21.296;2023-04-06T13:55:21;25.10;;;19.98;;
54921;SDS011;40824;45.116;21.296;2023-04-06T13:57:49;17.10;;;11.98;;
54921;SDS011;40824;45.116;21.296;2023-04-06T14:00:16;18.30;;;13.95;;
54921;SDS011;40824;45.116;21.296;2023-04-06T14:02:42;18.63;;;14.68;;
54921;SDS011;40824;45.116;21.296;2023-04-06T14:05:09;15.80;;;12.25;;
54921;SDS011;40824;45.116;21.296;2023-04-06T14:07:35;18.20;;;11.95;;
54921;SDS011;40824;45.116;21.296;2023-04-06T14:10:02;16.63;;;12.13;;
54921;SDS011;40824;45.116;21.296;2023-04-06T14:12:28;16.63;;;11.02;;
54921;SDS011;40824;45.116;21.296;2023-04-06T14:14:56;25.45;;;17.27;;
54921;SDS011;40824;45.116;21.296;2023-04-06T14:17:22;18.63;;;13.25;;
54921;SDS011;40824;45.116;21.296;2023-04-06T14:19:50;14.60;;;12.25;;
54921;SDS011;40824;45.116;21.296;2023-04-06T14:22:17;15.20;;;12.13;;